sensor_id;sensor_type;location;lat;lon;timestamp;pressure;altitude;pressure_sealevel;temperature;humidity
63901;BME280;50538;53.482;10.294;2023-05-11T00:09:02;100980.72;;;13.34;91.84
63901;BME280;50538;53.482;10.294;2023-05-11T00:19:27;100979.34;;;13.38;88.87
63901;BME280;50538;53.482;10.294;2023-05-11T00:29:33;100977.28;;;13.25;92.74
63901;BME280;50538;53.482;10.294;2023-05-11T00:50:34;100978.63;;;13.21;93.97
63901;BME280;50538;53.482;10.294;2023-05-11T01:01:02;100974.78;;;13.23;92.87
63901;BME280;50538;53.482;10.294;2023-05-11T01:33:57;100983.44;;;13.25;91.58
63901;BME280;50538;53.482;10.294;2023-05-11T01:44:24;100990.59;;;13.25;90.60
63901;BME280;50538;53.482;10.294;2023-05-11T01:54:53;100993.28;;;13.25;89.45
63901;BME280;50538;53.482;10.294;2023-05-11T02:04:56;101004.50;;;13.12;91.73
63901;BME280;50538;53.482;10.294;2023-05-11T02:15:11;101007.22;;;13.04;94.31
63901;BME280;50538;53.482;10.294;2023-05-11T02:25:22;101004.75;;;12.94;96.49
63901;BME280;50538;53.482;10.294;2023-05-11T02:35:45;101012.44;;;12.89;95.99
63901;BME280;50538;53.482;10.294;2023-05-11T02:46:01;101012.63;;;12.88;95.53
63901;BME280;50538;53.482;10.294;2023-05-11T02:56:34;101022.28;;;12.89;95.71
63901;BME280;50538;53.482;10.294;2023-05-11T03:06:36;101022.44;;;12.87;96.38
63901;BME280;50538;53.482;10.294;2023-05-11T03:16:48;101017.94;;;12.88;94.95
63901;BME280;50538;53.482;10.294;2023-05-11T03:27:10;101015.47;;;12.86;94.21
63901;BME280;50538;53.482;10.294;2023-05-11T03:37:18;101016.28;;;12.87;93.62
63901;BME280;50538;53.482;10.294;2023-05-11T03:47:20;101015.63;;;12.85;92.07
63901;BME280;50538;53.482;10.294;2023-05-11T03:57:24;101010.31;;;12.85;92.08
63901;BME280;50538;53.482;10.294;2023-05-11T04:07:53;101026.94;;;12.87;90.98
63901;BME280;50538;53.482;10.294;2023-05-11T04:18:15;101034.34;;;12.77;95.34
63901;BME280;50538;53.482;10.294;2023-05-11T04:28:22;101027.53;;;12.74;94.78
63901;BME280;50538;53.482;10.294;2023-05-11T04:38:31;101028.38;;;12.75;92.28
63901;BME280;50538;53.482;10.294;2023-05-11T04:48:42;101036.50;;;12.81;93.89
63901;BME280;50538;53.482;10.294;2023-05-11T04:58:46;101044.34;;;12.75;95.02
63901;BME280;50538;53.482;10.294;2023-05-11T05:08:50;101046.09;;;12.90;93.15
63901;BME280;50538;53.482;10.294;2023-05-11T05:29:49;101039.97;;;13.21;94.39
63901;BME280;50538;53.482;10.294;2023-05-11T05:39:55;101059.72;;;13.35;93.79
63901;BME280;50538;53.482;10.294;2023-05-11T05:49:57;101063.53;;;13.40;96.29
63901;BME280;50538;53.482;10.294;2023-05-11T06:00:13;101075.13;;;13.47;96.27
63901;BME280;50538;53.482;10.294;2023-05-11T06:10:19;101088.53;;;13.62;93.69
63901;BME280;50538;53.482;10.294;2023-05-11T06:20:32;101093.00;;;13.70;94.22
63901;BME280;50538;53.482;10.294;2023-05-11T06:30:36;101088.59;;;13.77;94.46
63901;BME280;50538;53.482;10.294;2023-05-11T06:40:37;101095.41;;;13.87;92.04
63901;BME280;50538;53.482;10.294;2023-05-11T06:50:37;101091.72;;;13.88;93.28
63901;BME280;50538;53.482;10.294;2023-05-11T07:00:38;101102.44;;;14.03;93.46
63901;BME280;50538;53.482;10.294;2023-05-11T07:10:38;101100.72;;;14.10;94.49
63901;BME280;50538;53.482;10.294;2023-05-11T07:20:40;101107.66;;;14.19;92.10
63901;BME280;50538;53.482;10.294;2023-05-11T07:30:41;101103.72;;;14.30;95.15
63901;BME280;50538;53.482;10.294;2023-05-11T07:40:49;101103.66;;;14.38;94.51
63901;BME280;50538;53.482;10.294;2023-05-11T07:51:05;101105.41;;;14.46;91.53
63901;BME280;50538;53.482;10.294;2023-05-11T08:33:42;101127.72;;;14.68;97.14
63901;BME280;50538;53.482;10.294;2023-05-11T08:44:03;101120.72;;;14.67;94.94
63901;BME280;50538;53.482;10.294;2023-05-11T08:54:07;101124.50;;;14.87;94.08
63901;BME280;50538;53.482;10.294;2023-05-11T09:04:13;101122.41;;;15.12;95.59
63901;BME280;50538;53.482;10.294;2023-05-11T09:14:39;101130.28;;;15.49;96.05
63901;BME280;50538;53.482;10.294;2023-05-11T09:58:28;101141.41;;;15.89;92.49
63901;BME280;50538;53.482;10.294;2023-05-11T10:31:10;101123.66;;;16.31;93.48
63901;BME280;50538;53.482;10.294;2023-05-11T11:47:22;101107.72;;;18.86;78.71
63901;BME280;50538;53.482;10.294;2023-05-11T11:57:46;101102.44;;;19.62;76.86
63901;BME280;50538;53.482;10.294;2023-05-11T12:08:10;101110.22;;;19.77;75.74
63901;BME280;50538;53.482;10.294;2023-05-11T13:53:24;101031.28;;;21.18;71.44
63901;BME280;50538;53.482;10.294;2023-05-11T14:57:55;100997.47;;;23.92;61.26
63901;BME280;50538;53.482;10.294;2023-05-11T15:08:32;100989.50;;;24.02;61.65
63901;BME280;50538;53.482;10.294;2023-05-11T15:19:10;100992.88;;;24.48;59.51
63901;BME280;50538;53.482;10.294;2023-05-11T15:29:52;100988.75;;;25.11;54.24
63901;BME280;50538;53.482;10.294;2023-05-11T15:40:04;100992.56;;;24.88;57.68
63901;BME280;50538;53.482;10.294;2023-05-11T15:50:42;100989.59;;;24.68;57.77
63901;BME280;50538;53.482;10.294;2023-05-11T16:00:45;100987.53;;;25.24;54.23
63901;BME280;50538;53.482;10.294;2023-05-11T16:10:49;100992.13;;;24.53;54.59
63901;BME280;50538;53.482;10.294;2023-05-11T16:21:09;100995.69;;;23.64;56.16
63901;BME280;50538;53.482;10.294;2023-05-11T16:31:29;101005.53;;;22.97;59.24
63901;BME280;50538;53.482;10.294;2023-05-11T16:42:13;101011.88;;;22.39;60.77
63901;BME280;50538;53.482;10.294;2023-05-11T16:52:40;101005.72;;;21.85;61.49
63901;BME280;50538;53.482;10.294;2023-05-11T17:03:23;101008.34;;;21.38;62.56
63901;BME280;50538;53.482;10.294;2023-05-11T17:13:50;101009.22;;;21.02;62.82
63901;BME280;50538;53.482;10.294;2023-05-11T17:24:01;101017.66;;;20.76;63.46
63901;BME280;50538;53.482;10.294;2023-05-11T17:34:32;101010.47;;;20.70;64.29
63901;BME280;50538;53.482;10.294;2023-05-11T17:44:55;101011.16;;;20.95;62.26
63901;BME280;50538;53.482;10.294;2023-05-11T17:55:14;101025.09;;;20.80;63.63
63901;BME280;50538;53.482;10.294;2023-05-11T18:16:07;101027.25;;;20.10;64.88
63901;BME280;50538;53.482;10.294;2023-05-11T18:26:28;101035.75;;;19.82;65.08
63901;BME280;50538;53.482;10.294;2023-05-11T18:36:47;101047.34;;;19.58;64.84
63901;BME280;50538;53.482;10.294;2023-05-11T18:47:07;101068.41;;;19.36;66.16
63901;BME280;50538;53.482;10.294;2023-05-11T18:57:31;101073.28;;;19.08;66.80
63901;BME280;50538;53.482;10.294;2023-05-11T19:07:40;101084.34;;;18.80;67.38
63901;BME280;50538;53.482;10.294;2023-05-11T19:18:04;101102.41;;;18.53;68.48
63901;BME280;50538;53.482;10.294;2023-05-11T19:28:32;101109.22;;;18.29;68.92
63901;BME280;50538;53.482;10.294;2023-05-11T19:39:03;101120.16;;;18.08;69.08
63901;BME280;50538;53.482;10.294;2023-05-11T19:49:27;101126.53;;;17.80;69.23
63901;BME280;50538;53.482;10.294;2023-05-11T19:59:48;101132.66;;;17.54;69.92
63901;BME280;50538;53.482;10.294;2023-05-11T20:10:52;101143.06;;;17.23;70.46
63901;BME280;50538;53.482;10.294;2023-05-11T20:21:17;101162.06;;;16.94;71.31
63901;BME280;50538;53.482;10.294;2023-05-11T20:31:24;101167.09;;;16.69;72.08
63901;BME280;50538;53.482;10.294;2023-05-11T20:41:57;101181.09;;;16.43;72.88
63901;BME280;50538;53.482;10.294;2023-05-11T20:52:29;101186.00;;;16.18;73.42
63901;BME280;50538;53.482;10.294;2023-05-11T21:03:03;101193.44;;;16.01;73.19
63901;BME280;50538;53.482;10.294;2023-05-11T21:13:10;101188.78;;;15.88;72.89
63901;BME280;50538;53.482;10.294;2023-05-11T21:23:22;101189.53;;;15.82;72.29
63901;BME280;50538;53.482;10.294;2023-05-11T21:33:40;101200.31;;;15.68;72.45
63901;BME280;50538;53.482;10.294;2023-05-11T21:43:43;101215.91;;;15.49;72.41
63901;BME280;50538;53.482;10.294;2023-05-11T21:53:45;101229.66;;;15.32;73.04
63901;BME280;50538;53.482;10.294;2023-05-11T22:03:51;101241.28;;;15.09;73.53
63901;BME280;50538;53.482;10.294;2023-05-11T22:13:57;101259.50;;;14.91;74.31
63901;BME280;50538;53.482;10.294;2023-05-11T22:23:59;101255.84;;;14.69;74.55
63901;BME280;50538;53.482;10.294;2023-05-11T22:34:08;101262.41;;;14.44;75.28
63901;BME280;50538;53.482;10.294;2023-05-11T22:44:10;101276.03;;;14.26;75.73
63901;BME280;50538;53.482;10.294;2023-05-11T22:54:33;101281.16;;;14.05;76.08
63901;BME280;50538;53.482;10.294;2023-05-11T23:05:06;101287.44;;;13.81;77.51
63901;BME280;50538;53.482;10.294;2023-05-11T23:15:10;101289.31;;;13.64;77.79
63901;BME280;50538;53.482;10.294;2023-05-11T23:25:31;101297.69;;;13.53;78.33
63901;BME280;50538;53.482;10.294;2023-05-11T23:35:37;101291.75;;;13.35;79.52
63901;BME280;50538;53.482;10.294;2023-05-11T23:45:56;101296.78;;;13.21;79.99
63901;BME280;50538;53.482;10.294;2023-05-11T23:55:58;101299.44;;;13.21;79.08
